createdAt,value
2019-02-27T00:02:00.205Z,11.58
2019-02-27T00:04:26.154Z,11.54
2019-02-27T00:06:52.293Z,11.49
2019-02-27T00:09:18.311Z,11.48
2019-02-27T00:11:46.681Z,11.39
2019-02-27T00:14:12.179Z,11.42
2019-02-27T00:16:38.109Z,11.41
2019-02-27T00:19:04.144Z,11.35
2019-02-27T00:21:33.355Z,11.24
2019-02-27T00:23:59.437Z,11.19
2019-02-27T00:26:25.270Z,11.10
2019-02-27T00:28:51.201Z,11.09
2019-02-27T00:31:17.037Z,11.03
2019-02-27T00:33:42.979Z,11.00
2019-02-27T00:36:12.010Z,11.10
2019-02-27T00:38:36.829Z,10.95
2019-02-27T00:41:02.674Z,11.01
2019-02-27T00:43:29.087Z,10.92
2019-02-27T00:45:55.096Z,11.01
2019-02-27T00:48:21.181Z,10.97
2019-02-27T00:50:47.023Z,10.92
2019-02-27T00:53:12.894Z,10.85
2019-02-27T00:55:39.547Z,10.85
2019-02-27T00:58:05.518Z,10.79
2019-02-27T01:00:31.487Z,10.68
2019-02-27T01:02:57.358Z,10.54
2019-02-27T01:05:23.500Z,10.43
2019-02-27T01:07:51.936Z,10.41
2019-02-27T01:10:17.253Z,10.42
2019-02-27T01:12:43.223Z,10.35
2019-02-27T01:15:11.311Z,10.40
2019-02-27T01:17:37.379Z,10.37
2019-02-27T01:20:13.549Z,10.49
2019-02-27T01:22:39.463Z,10.49
2019-02-27T01:25:05.518Z,10.43
2019-02-27T01:27:31.514Z,10.54
2019-02-27T01:29:57.462Z,10.68
2019-02-27T01:32:23.285Z,10.67
2019-02-27T01:34:49.283Z,10.64
2019-02-27T01:37:15.111Z,10.76
2019-02-27T01:39:41.855Z,10.80
2019-02-27T01:42:08.942Z,10.77
2019-02-27T01:44:34.778Z,10.78
2019-02-27T01:47:02.396Z,10.85
2019-02-27T01:49:28.529Z,10.94
2019-02-27T01:51:54.361Z,10.78
2019-02-27T01:54:20.321Z,10.85
2019-02-27T01:56:46.161Z,10.75
2019-02-27T01:59:14.055Z,10.82
2019-02-27T02:01:39.939Z,10.74
2019-02-27T02:04:05.777Z,10.88
2019-02-27T02:06:32.444Z,10.81
2019-02-27T02:09:10.718Z,10.82
2019-02-27T02:11:36.566Z,10.78
2019-02-27T02:14:15.413Z,10.65
2019-02-27T02:16:57.390Z,10.71
2019-02-27T02:19:36.217Z,10.59
2019-02-27T02:22:14.685Z,10.54
2019-02-27T02:25:02.528Z,10.61
2019-02-27T02:27:44.367Z,10.52
2019-02-27T02:30:32.150Z,10.32
2019-02-27T02:33:30.712Z,10.36
2019-02-27T02:36:03.447Z,10.41
2019-02-27T02:38:53.027Z,10.30
2019-02-27T02:41:37.761Z,10.05
2019-02-27T02:44:21.087Z,10.01
2019-02-27T02:46:53.771Z,10.08
2019-02-27T02:49:42.624Z,9.96
2019-02-27T02:52:22.521Z,9.72
2019-02-27T02:54:58.083Z,9.60
2019-02-27T02:57:44.837Z,9.62
2019-02-27T03:00:26.701Z,9.44
2019-02-27T03:03:20.958Z,9.54
2019-02-27T03:06:02.611Z,9.49
2019-02-27T03:08:47.089Z,9.43
2019-02-27T03:11:39.036Z,9.40
2019-02-27T03:14:20.384Z,9.41
2019-02-27T03:17:18.056Z,9.40
2019-02-27T03:19:58.362Z,9.36
2019-02-27T03:22:31.270Z,9.21
2019-02-27T03:25:09.953Z,9.60
2019-02-27T03:28:01.751Z,9.86
2019-02-27T03:30:36.864Z,9.89
2019-02-27T03:33:23.059Z,9.91
2019-02-27T03:35:53.252Z,9.99
2019-02-27T03:38:39.415Z,9.93
2019-02-27T03:41:24.374Z,9.80
2019-02-27T03:44:12.330Z,9.84
2019-02-27T03:46:54.167Z,9.80
2019-02-27T03:49:29.882Z,9.76
2019-02-27T03:52:25.547Z,9.54
2019-02-27T03:55:04.384Z,9.57
2019-02-27T03:58:00.133Z,9.63
2019-02-27T04:00:32.509Z,10.02
2019-02-27T04:03:02.211Z,9.85
2019-02-27T04:05:46.237Z,9.86
2019-02-27T04:08:27.705Z,9.65
2019-02-27T04:10:53.654Z,9.76
2019-02-27T04:13:19.481Z,9.65
2019-02-27T04:15:45.535Z,9.61
2019-02-27T04:18:11.158Z,9.47
2019-02-27T04:20:37.155Z,9.42
2019-02-27T04:23:03.027Z,9.67
2019-02-27T04:25:31.398Z,9.57
2019-02-27T04:27:56.832Z,9.59
2019-02-27T04:30:22.681Z,9.36
2019-02-27T04:32:48.988Z,9.50
2019-02-27T04:35:15.012Z,9.45
2019-02-27T04:37:40.856Z,9.47
2019-02-27T04:40:10.784Z,9.31
2019-02-27T04:42:34.973Z,9.24
2019-02-27T04:45:00.860Z,9.25
2019-02-27T04:47:29.172Z,9.25
2019-02-27T04:49:54.562Z,9.19
2019-02-27T04:52:21.918Z,8.90
2019-02-27T04:54:48.348Z,9.01
2019-02-27T04:57:14.276Z,8.83
2019-02-27T04:59:40.199Z,8.74
2019-02-27T05:02:06.187Z,8.52
2019-02-27T05:04:35.007Z,8.84
2019-02-27T05:06:59.796Z,8.76
2019-02-27T05:09:25.668Z,8.81
2019-02-27T05:11:51.588Z,8.78
2019-02-27T05:14:17.471Z,8.56
2019-02-27T05:16:46.993Z,8.81
2019-02-27T05:19:11.094Z,8.74
2019-02-27T05:21:36.986Z,8.88
2019-02-27T05:24:05.176Z,8.81
2019-02-27T05:26:30.728Z,8.67
2019-02-27T05:28:56.595Z,8.61
2019-02-27T05:31:22.438Z,8.85
2019-02-27T05:33:48.398Z,8.94
2019-02-27T05:36:14.247Z,8.49
2019-02-27T05:38:41.027Z,8.54
2019-02-27T05:41:08.144Z,8.61
2019-02-27T05:43:33.989Z,8.80
2019-02-27T05:46:02.755Z,8.70
2019-02-27T05:48:27.584Z,8.80
2019-02-27T05:50:54.009Z,8.95
2019-02-27T05:53:22.099Z,8.88
2019-02-27T05:55:47.560Z,8.82
2019-02-27T05:58:13.464Z,8.68
2019-02-27T06:00:39.293Z,8.86
2019-02-27T06:03:05.262Z,8.91
2019-02-27T06:05:33.652Z,8.81
2019-02-27T06:08:02.092Z,8.54
2019-02-27T06:10:26.743Z,8.51
2019-02-27T06:12:52.717Z,8.56
2019-02-27T06:15:18.663Z,8.36
2019-02-27T06:17:48.824Z,8.53
2019-02-27T06:20:14.077Z,8.76
2019-02-27T06:22:39.992Z,8.86
2019-02-27T06:25:12.372Z,8.86
2019-02-27T06:27:39.454Z,8.92
2019-02-27T06:30:12.555Z,8.92
2019-02-27T06:32:38.505Z,8.88
2019-02-27T06:35:07.180Z,9.01
2019-02-27T06:37:33.023Z,9.11
2019-02-27T06:39:58.869Z,9.31
2019-02-27T06:42:24.830Z,9.44
2019-02-27T06:44:50.777Z,9.45
2019-02-27T06:47:16.764Z,9.47
2019-02-27T06:49:42.694Z,9.53
2019-02-27T06:52:09.277Z,9.60
2019-02-27T06:54:37.760Z,9.60
2019-02-27T06:57:07.482Z,9.85
2019-02-27T06:59:31.613Z,9.98
2019-02-27T07:01:57.547Z,10.06
2019-02-27T07:04:23.403Z,10.16
2019-02-27T07:06:49.249Z,10.18
2019-02-27T07:09:15.202Z,10.09
2019-02-27T07:11:44.880Z,10.05
2019-02-27T07:14:08.911Z,10.08
2019-02-27T07:16:34.771Z,10.14
2019-02-27T07:19:00.633Z,10.14
2019-02-27T07:21:26.465Z,10.14
2019-02-27T07:23:57.698Z,10.21
2019-02-27T07:26:20.090Z,10.33
2019-02-27T07:28:46.053Z,10.45
2019-02-27T07:31:12.558Z,10.32
2019-02-27T07:33:40.555Z,10.55
2019-02-27T07:36:06.362Z,10.57
2019-02-27T07:38:32.299Z,10.62
2019-02-27T07:40:58.358Z,10.73
2019-02-27T07:43:24.207Z,10.87
2019-02-27T07:45:50.039Z,10.98
2019-02-27T07:48:16.026Z,11.13
2019-02-27T07:50:41.857Z,11.08
2019-02-27T07:53:07.706Z,11.09
2019-02-27T07:55:33.561Z,11.22
2019-02-27T07:57:59.531Z,11.36
2019-02-27T08:00:26.396Z,11.25
2019-02-27T08:02:52.555Z,11.35
2019-02-27T08:05:18.515Z,11.51
2019-02-27T08:07:48.784Z,11.51
2019-02-27T08:10:19.795Z,11.61
2019-02-27T08:12:45.841Z,11.58
2019-02-27T08:15:14.213Z,11.70
2019-02-27T08:17:40.183Z,11.75
2019-02-27T08:20:07.910Z,12.00
2019-02-27T08:22:33.860Z,12.08
2019-02-27T08:24:59.761Z,12.18
2019-02-27T08:27:25.602Z,12.27
2019-02-27T08:29:54.939Z,12.48
2019-02-27T08:32:20.917Z,12.52
2019-02-27T08:34:46.761Z,12.50
2019-02-27T08:37:12.651Z,12.78
2019-02-27T08:39:38.614Z,12.80
2019-02-27T08:42:04.574Z,12.77
2019-02-27T08:44:30.561Z,12.97
2019-02-27T08:46:56.413Z,13.04
2019-02-27T08:49:24.964Z,13.18
2019-02-27T08:51:50.359Z,13.39
2019-02-27T08:54:16.193Z,13.70
2019-02-27T08:56:44.020Z,13.66
2019-02-27T08:59:10.224Z,13.74
2019-02-27T09:01:37.786Z,13.89
2019-02-27T09:04:06.063Z,14.00
2019-02-27T09:06:31.751Z,14.07
2019-02-27T09:08:57.653Z,14.15
2019-02-27T09:11:23.592Z,14.13
2019-02-27T09:13:49.428Z,14.22
2019-02-27T09:16:15.379Z,14.37
2019-02-27T09:18:41.346Z,14.58
2019-02-27T09:21:07.387Z,14.59
2019-02-27T09:23:33.644Z,14.76
2019-02-27T09:26:02.518Z,14.91
2019-02-27T09:28:27.262Z,15.00
2019-02-27T09:30:53.145Z,15.09
2019-02-27T09:33:20.210Z,15.23
2019-02-27T09:35:46.743Z,15.28
2019-02-27T09:38:12.697Z,15.25
2019-02-27T09:40:39.578Z,15.29
2019-02-27T09:43:06.333Z,15.51
2019-02-27T09:45:34.816Z,15.45
2019-02-27T09:48:01.440Z,15.52
2019-02-27T09:50:36.845Z,15.60
2019-02-27T09:53:04.317Z,15.70
2019-02-27T09:55:30.476Z,15.86
2019-02-27T09:57:56.411Z,15.77
2019-02-27T10:00:52.258Z,15.77
2019-02-27T10:03:21.272Z,15.86
2019-02-27T10:05:46.466Z,16.03
2019-02-27T10:08:12.569Z,16.10
2019-02-27T10:10:38.818Z,16.05
2019-02-27T10:13:04.772Z,16.13
2019-02-27T10:15:30.631Z,16.20
2019-02-27T10:17:56.581Z,16.27
2019-02-27T10:20:22.541Z,16.31
2019-02-27T10:22:48.460Z,16.45
2019-02-27T10:25:14.527Z,16.47
2019-02-27T10:27:40.587Z,16.59
2019-02-27T10:30:14.069Z,16.56
2019-02-27T10:32:40.209Z,16.57
2019-02-27T10:35:08.068Z,16.78
2019-02-27T10:37:34.020Z,16.96
2019-02-27T10:40:00.251Z,16.90
2019-02-27T10:42:26.305Z,17.00
2019-02-27T10:44:52.165Z,17.06
2019-02-27T10:47:18.075Z,17.03
2019-02-27T10:49:44.060Z,17.10
2019-02-27T10:52:09.925Z,17.08
2019-02-27T10:54:37.023Z,17.11
2019-02-27T10:57:03.531Z,17.01
2019-02-27T10:59:29.391Z,17.15
2019-02-27T11:01:55.319Z,17.17
2019-02-27T11:04:21.435Z,17.42
2019-02-27T11:06:47.387Z,17.41
2019-02-27T11:09:22.249Z,17.56
2019-02-27T11:11:48.761Z,17.69
2019-02-27T11:14:14.746Z,17.72
2019-02-27T11:16:40.576Z,17.74
2019-02-27T11:19:06.682Z,17.78
2019-02-27T11:21:32.611Z,17.91
2019-02-27T11:23:58.433Z,17.88
2019-02-27T11:26:24.537Z,18.02
2019-02-27T11:28:50.447Z,18.15
2019-02-27T11:31:16.381Z,18.24
2019-02-27T11:33:42.733Z,18.44
2019-02-27T11:36:08.674Z,18.55
2019-02-27T11:38:34.600Z,18.46
2019-02-27T11:41:00.695Z,18.53
2019-02-27T11:43:26.631Z,18.55
2019-02-27T11:45:57.499Z,18.58
2019-02-27T11:48:22.888Z,18.68
2019-02-27T11:50:49.502Z,18.61
2019-02-27T11:53:15.440Z,18.55
2019-02-27T11:55:41.583Z,18.82
2019-02-27T11:58:07.587Z,18.79
2019-02-27T12:00:33.922Z,18.65
2019-02-27T12:02:59.762Z,18.86
2019-02-27T12:05:30.304Z,18.81
2019-02-27T12:07:54.783Z,18.77
2019-02-27T12:10:29.485Z,18.78
2019-02-27T12:12:59.500Z,18.88
2019-02-27T12:15:23.519Z,18.91
2019-02-27T12:17:49.461Z,18.92
2019-02-27T12:20:18.845Z,19.07
2019-02-27T12:22:45.065Z,19.22
2019-02-27T12:25:15.140Z,19.32
2019-02-27T12:27:48.976Z,19.39
2019-02-27T12:30:12.483Z,19.41
2019-02-27T12:32:38.424Z,19.52
2019-02-27T12:35:08.218Z,19.84
2019-02-27T12:37:35.972Z,20.13
2019-02-27T12:40:04.103Z,20.13
2019-02-27T12:42:37.104Z,23.26
2019-02-27T12:44:57.716Z,30.42
2019-02-27T12:47:23.577Z,35.68
2019-02-27T12:49:51.534Z,35.49
2019-02-27T12:52:17.200Z,31.07
2019-02-27T12:54:43.233Z,34.55
2019-02-27T12:57:09.216Z,36.89
2019-02-27T12:59:35.152Z,35.57
2019-02-27T13:02:08.115Z,38.62
2019-02-27T13:04:28.986Z,34.87
2019-02-27T13:06:54.923Z,34.25
2019-02-27T13:09:20.761Z,35.51
2019-02-27T13:11:46.621Z,35.73
2019-02-27T13:14:12.451Z,36.00
2019-02-27T13:16:38.417Z,40.35
2019-02-27T13:19:07.086Z,39.68
2019-02-27T13:21:32.267Z,34.40
2019-02-27T13:23:58.082Z,37.61
2019-02-27T13:26:23.975Z,42.61
2019-02-27T13:28:49.943Z,40.66
2019-02-27T13:31:16.229Z,36.82
2019-02-27T13:33:44.713Z,33.64
2019-02-27T13:36:12.756Z,38.83
2019-02-27T13:38:38.605Z,38.05
2019-02-27T13:41:04.670Z,42.90
2019-02-27T13:43:30.518Z,45.77
2019-02-27T13:45:56.469Z,41.64
2019-02-27T13:48:22.378Z,44.06
2019-02-27T13:50:48.316Z,45.73
2019-02-27T13:53:14.285Z,41.18
2019-02-27T13:55:40.529Z,41.18
2019-02-27T13:58:06.347Z,39.68
2019-02-27T14:00:34.283Z,39.17
2019-02-27T14:03:00.431Z,37.94
2019-02-27T14:05:26.462Z,42.49
2019-02-27T14:07:57.275Z,42.82
2019-02-27T14:10:23.675Z,42.68
2019-02-27T14:12:49.727Z,42.50
2019-02-27T14:15:17.763Z,41.29
2019-02-27T14:17:43.845Z,39.49
2019-02-27T14:20:14.820Z,39.74
2019-02-27T14:22:41.238Z,40.65
2019-02-27T14:25:10.682Z,42.31
2019-02-27T14:27:36.608Z,41.06
2019-02-27T14:30:08.009Z,44.41
2019-02-27T14:32:33.914Z,45.04
2019-02-27T14:35:00.571Z,44.27
2019-02-27T14:37:27.476Z,46.77
2019-02-27T14:39:53.330Z,44.84
2019-02-27T14:42:20.564Z,42.23
2019-02-27T14:44:47.023Z,41.80
2019-02-27T14:47:12.957Z,42.04
2019-02-27T14:49:38.973Z,44.13
2019-02-27T14:52:04.936Z,43.38
2019-02-27T14:54:30.902Z,42.11
2019-02-27T14:56:56.871Z,44.56
2019-02-27T14:59:22.819Z,45.58
2019-02-27T15:01:49.456Z,43.19
2019-02-27T15:04:15.447Z,45.17
2019-02-27T15:06:41.283Z,45.51
2019-02-27T15:09:07.310Z,42.60
2019-02-27T15:11:33.290Z,44.11
2019-02-27T15:14:00.596Z,45.70
2019-02-27T15:16:26.968Z,43.94
2019-02-27T15:18:55.844Z,41.07
2019-02-27T15:21:20.979Z,42.17
2019-02-27T15:23:46.940Z,39.66
2019-02-27T15:26:16.028Z,40.60
2019-02-27T15:28:41.695Z,41.05
2019-02-27T15:31:07.738Z,38.64
2019-02-27T15:33:35.907Z,40.47
2019-02-27T15:36:04.387Z,39.07
2019-02-27T15:38:33.595Z,32.38
2019-02-27T15:41:02.374Z,27.13
2019-02-27T15:43:27.447Z,25.72
2019-02-27T15:45:53.476Z,24.75
2019-02-27T15:48:19.426Z,23.90
2019-02-27T15:50:45.277Z,23.38
2019-02-27T15:53:14.584Z,22.81
2019-02-27T15:55:39.082Z,22.47
2019-02-27T15:58:05.058Z,22.07
2019-02-27T16:00:31.188Z,21.79
2019-02-27T16:02:57.273Z,21.64
2019-02-27T16:05:23.202Z,21.38
2019-02-27T16:07:49.802Z,21.22
2019-02-27T16:10:23.348Z,20.90
2019-02-27T16:12:49.743Z,20.84
2019-02-27T16:15:17.842Z,20.77
2019-02-27T16:17:43.968Z,20.57
2019-02-27T16:20:16.857Z,20.29
2019-02-27T16:22:42.995Z,20.24
2019-02-27T16:25:13.980Z,20.11
2019-02-27T16:27:39.391Z,20.01
2019-02-27T16:30:17.104Z,19.88
2019-02-27T16:32:47.990Z,19.60
2019-02-27T16:35:11.338Z,19.66
2019-02-27T16:37:37.288Z,19.52
2019-02-27T16:40:09.479Z,19.39
2019-02-27T16:42:36.366Z,19.29
2019-02-27T16:45:06.696Z,19.06
2019-02-27T16:47:32.865Z,18.88
2019-02-27T16:49:58.829Z,18.82
2019-02-27T16:52:24.829Z,18.68
2019-02-27T16:54:50.810Z,18.51
2019-02-27T16:57:21.210Z,18.26
2019-02-27T16:59:45.326Z,18.26
2019-02-27T17:02:12.144Z,18.17
2019-02-27T17:04:37.987Z,18.02
2019-02-27T17:07:03.972Z,17.98
2019-02-27T17:09:35.048Z,17.86
2019-02-27T17:12:04.224Z,17.71
2019-02-27T17:14:29.041Z,17.75
2019-02-27T17:16:55.022Z,17.48
2019-02-27T17:19:20.963Z,17.16
2019-02-27T17:21:46.908Z,16.93
2019-02-27T17:24:12.815Z,16.72
2019-02-27T17:26:39.787Z,16.89
2019-02-27T17:29:05.736Z,16.74
2019-02-27T17:31:31.813Z,16.63
2019-02-27T17:33:58.073Z,16.44
2019-02-27T17:36:25.952Z,16.43
2019-02-27T17:38:51.807Z,16.28
2019-02-27T17:41:17.686Z,16.05
2019-02-27T17:43:43.581Z,15.77
2019-02-27T17:46:09.416Z,15.55
2019-02-27T17:48:35.672Z,15.38
2019-02-27T17:51:05.489Z,15.28
2019-02-27T17:53:29.568Z,15.14
2019-02-27T17:55:56.378Z,15.07
2019-02-27T17:58:22.260Z,15.01
2019-02-27T18:00:51.229Z,15.07
2019-02-27T18:03:20.659Z,14.97
2019-02-27T18:05:46.566Z,14.87
2019-02-27T18:08:15.791Z,14.76
2019-02-27T18:10:40.437Z,14.64
2019-02-27T18:13:06.450Z,14.82
2019-02-27T18:15:32.402Z,14.90
2019-02-27T18:17:58.428Z,14.79
2019-02-27T18:20:25.815Z,14.72
2019-02-27T18:22:51.909Z,14.71
2019-02-27T18:25:18.364Z,14.74
2019-02-27T18:27:44.323Z,14.64
2019-02-27T18:30:15.526Z,14.62
2019-02-27T18:32:41.531Z,14.58
2019-02-27T18:35:07.552Z,14.53
2019-02-27T18:37:33.593Z,14.46
2019-02-27T18:39:59.869Z,14.36
2019-02-27T18:42:29.530Z,14.30
2019-02-27T18:44:55.475Z,14.28
2019-02-27T18:47:21.359Z,14.35
2019-02-27T18:49:49.086Z,14.29
2019-02-27T18:52:21.188Z,14.09
2019-02-27T18:54:43.162Z,13.92
2019-02-27T18:57:11.926Z,13.93
2019-02-27T18:59:37.999Z,13.82
2019-02-27T19:02:04.041Z,13.74
2019-02-27T19:04:35.083Z,13.73
2019-02-27T19:06:57.966Z,13.60
2019-02-27T19:09:23.918Z,13.60
2019-02-27T19:11:50.886Z,13.65
2019-02-27T19:14:17.654Z,13.64
2019-02-27T19:16:43.702Z,13.66
2019-02-27T19:19:09.920Z,13.60
2019-02-27T19:21:35.944Z,13.59
2019-02-27T19:24:01.977Z,13.53
2019-02-27T19:26:28.001Z,13.51
2019-02-27T19:28:59.312Z,13.52
2019-02-27T19:31:21.870Z,13.28
2019-02-27T19:33:47.979Z,13.14
2019-02-27T19:36:19.217Z,13.04
2019-02-27T19:38:44.242Z,12.97
2019-02-27T19:41:09.795Z,12.95
2019-02-27T19:43:35.640Z,12.99
2019-02-27T19:46:01.740Z,13.00
2019-02-27T19:48:28.946Z,12.84
2019-02-27T19:50:55.631Z,12.92
2019-02-27T19:53:21.540Z,12.88
2019-02-27T19:55:47.535Z,12.72
2019-02-27T19:58:17.139Z,12.68
2019-02-27T20:00:48.261Z,12.64
2019-02-27T20:03:16.174Z,12.61
2019-02-27T20:05:42.485Z,12.60
2019-02-27T20:08:10.819Z,12.47
2019-02-27T20:10:39.900Z,12.48
2019-02-27T20:13:07.062Z,12.24
2019-02-27T20:15:35.083Z,12.19
2019-02-27T20:18:01.010Z,12.18
2019-02-27T20:20:27.102Z,12.30
2019-02-27T20:22:54.720Z,12.30
2019-02-27T20:25:26.085Z,12.10
2019-02-27T20:27:52.581Z,11.95
2019-02-27T20:30:20.202Z,12.11
2019-02-27T20:32:47.078Z,12.12
2019-02-27T20:35:13.660Z,12.08
2019-02-27T20:37:41.387Z,12.00
2019-02-27T20:40:10.785Z,11.90
2019-02-27T20:42:37.647Z,11.80
2019-02-27T20:45:10.560Z,11.83
2019-02-27T20:47:37.304Z,11.93
2019-02-27T20:50:08.873Z,11.83
2019-02-27T20:52:35.348Z,11.77
2019-02-27T20:55:01.526Z,11.85
2019-02-27T20:57:27.576Z,11.78
2019-02-27T20:59:53.518Z,11.71
2019-02-27T21:02:19.706Z,11.78
2019-02-27T21:04:45.867Z,11.88
2019-02-27T21:07:11.713Z,11.79
2019-02-27T21:09:37.736Z,11.81
2019-02-27T21:12:05.349Z,11.81
2019-02-27T21:14:32.433Z,11.67
2019-02-27T21:16:58.261Z,11.54
2019-02-27T21:19:24.116Z,11.64
2019-02-27T21:21:53.643Z,11.51
2019-02-27T21:24:17.927Z,11.56
2019-02-27T21:26:43.763Z,11.43
2019-02-27T21:29:09.925Z,11.41
2019-02-27T21:31:35.936Z,11.47
2019-02-27T21:34:01.754Z,11.45
2019-02-27T21:36:27.775Z,11.45
2019-02-27T21:38:53.707Z,11.31
2019-02-27T21:41:19.539Z,11.28
2019-02-27T21:43:45.376Z,11.23
2019-02-27T21:46:14.598Z,11.24
2019-02-27T21:48:41.616Z,11.28
2019-02-27T21:51:07.522Z,11.11
2019-02-27T21:53:33.349Z,11.01
2019-02-27T21:55:59.168Z,10.97
2019-02-27T21:58:25.899Z,11.01
2019-02-27T22:00:51.722Z,10.90
2019-02-27T22:03:17.673Z,11.02
2019-02-27T22:05:44.388Z,10.98
2019-02-27T22:08:10.212Z,10.99
2019-02-27T22:10:36.089Z,10.94
2019-02-27T22:13:02.144Z,10.83
2019-02-27T22:15:28.949Z,10.80
2019-02-27T22:17:55.018Z,10.83
2019-02-27T22:20:21.041Z,10.81
2019-02-27T22:22:47.064Z,10.80
2019-02-27T22:25:13.038Z,10.71
2019-02-27T22:27:38.986Z,10.69
2019-02-27T22:30:08.610Z,10.75
2019-02-27T22:32:34.514Z,10.84
2019-02-27T22:35:02.824Z,10.80
2019-02-27T22:37:28.116Z,10.66
2019-02-27T22:39:53.959Z,10.60
2019-02-27T22:42:19.768Z,10.42
2019-02-27T22:44:45.618Z,10.41
2019-02-27T22:47:11.490Z,10.34
2019-02-27T22:49:37.600Z,10.40
2019-02-27T22:52:03.547Z,10.29
2019-02-27T22:54:29.362Z,10.30
2019-02-27T22:56:55.183Z,10.29
2019-02-27T22:59:21.030Z,10.19
2019-02-27T23:01:50.831Z,10.20
2019-02-27T23:04:17.064Z,10.26
2019-02-27T23:06:43.740Z,10.15
2019-02-27T23:09:12.097Z,10.15
2019-02-27T23:11:39.621Z,10.07
2019-02-27T23:14:05.636Z,10.14
2019-02-27T23:16:31.447Z,10.26
2019-02-27T23:18:57.375Z,10.26
2019-02-27T23:21:23.194Z,10.34
2019-02-27T23:23:49.133Z,10.31
2019-02-27T23:26:19.751Z,10.37
2019-02-27T23:28:42.869Z,10.27
2019-02-27T23:31:08.987Z,10.25
2019-02-27T23:33:36.631Z,10.18
2019-02-27T23:36:02.693Z,10.06
2019-02-27T23:38:28.661Z,9.93
2019-02-27T23:40:54.565Z,10.02
2019-02-27T23:43:20.671Z,10.01
2019-02-27T23:45:46.590Z,9.90
2019-02-27T23:48:12.752Z,10.02
2019-02-27T23:50:38.848Z,9.99
2019-02-27T23:53:04.959Z,9.96
2019-02-27T23:55:30.896Z,10.00
2019-02-27T23:57:57.924Z,9.99
